Normandin, Canada
Current Conditions -  °F | °C
As of 5:00 AM on Friday 24 Oct 2014 (Local Time) from CYRJ Reporting Station
Broken Clouds Broken Clouds  
Wind Chill: 30°   Ceiling: 14000
Heat Index: 36°   Visibility: 25mi
Dew Point: 28°   Wind: 7mph
Humidity: 75%   Direction: 290°WNW
Pressure: 30"   Gusts: NA
Location:  48.83°N, 72.52°W
Report Text: CYRJ 240900Z 29006KT 25SM BKN140 02/M02 A3000 RMK AC6 SLP167
Loading
Personal Weather Stations






























Interactive Weather Map
Tropical Storm Tracking
New forecast layout! Learn more

10-Day Weather Forecast

Advertisements
Track Severe Weather on mobile